sensor_id;sensor_type;location;lat;lon;timestamp;pressure;altitude;pressure_sealevel;temperature;humidity
51876;BME280;34054;52.100;5.116;2022-11-03T00:00:09;101137.19;;;11.74;73.34
51876;BME280;34054;52.100;5.116;2022-11-03T00:00:41;101124.31;;;11.64;73.38
51876;BME280;34054;52.100;5.116;2022-11-03T00:01:14;101150.06;;;11.84;73.25
51876;BME280;34054;52.100;5.116;2022-11-03T00:01:47;101093.47;;;11.53;73.31
51876;BME280;34054;52.100;5.116;2022-11-03T00:02:20;101088.38;;;11.62;72.97
51876;BME280;34054;52.100;5.116;2022-11-03T00:02:53;101091.66;;;11.37;73.13
51876;BME280;34054;52.100;5.116;2022-11-03T00:03:25;101115.47;;;11.52;73.43
51876;BME280;34054;52.100;5.116;2022-11-03T00:03:56;100940.34;;;10.43;73.57
51876;BME280;34054;52.100;5.116;2022-11-03T00:04:29;100992.97;;;10.81;73.44
51876;BME280;34054;52.100;5.116;2022-11-03T00:05:02;101011.31;;;10.96;73.42
51876;BME280;34054;52.100;5.116;2022-11-03T00:05:55;101059.03;;;11.37;73.35
51876;BME280;34054;52.100;5.116;2022-11-03T00:06:37;101076.09;;;11.59;73.02
51876;BME280;34054;52.100;5.116;2022-11-03T00:07:09;101109.84;;;11.91;72.87
51876;BME280;34054;52.100;5.116;2022-11-03T00:07:41;101134.66;;;11.94;72.79
51876;BME280;34054;52.100;5.116;2022-11-03T00:08:12;101126.69;;;11.88;72.76
51876;BME280;34054;52.100;5.116;2022-11-03T00:08:45;101097.22;;;11.79;72.77
51876;BME280;34054;52.100;5.116;2022-11-03T00:09:18;101106.47;;;11.78;72.93
51876;BME280;34054;52.100;5.116;2022-11-03T00:09:51;101115.25;;;11.86;73.10
51876;BME280;34054;52.100;5.116;2022-11-03T00:10:23;101089.44;;;11.61;72.78
51876;BME280;34054;52.100;5.116;2022-11-03T00:11:01;101117.34;;;11.78;72.88
51876;BME280;34054;52.100;5.116;2022-11-03T00:11:34;101116.75;;;11.71;72.94
51876;BME280;34054;52.100;5.116;2022-11-03T00:12:08;101116.34;;;11.85;72.84
51876;BME280;34054;52.100;5.116;2022-11-03T00:12:40;100963.50;;;10.95;72.80
51876;BME280;34054;52.100;5.116;2022-11-03T00:13:12;101104.59;;;11.79;72.55
51876;BME280;34054;52.100;5.116;2022-11-03T00:13:43;101018.44;;;11.30;72.67
51876;BME280;34054;52.100;5.116;2022-11-03T00:14:17;101116.56;;;11.78;72.74
51876;BME280;34054;52.100;5.116;2022-11-03T00:14:49;101111.09;;;11.78;72.94
51876;BME280;34054;52.100;5.116;2022-11-03T00:15:21;100934.09;;;10.65;72.92
51876;BME280;34054;52.100;5.116;2022-11-03T00:15:53;101100.97;;;11.68;72.96
51876;BME280;34054;52.100;5.116;2022-11-03T00:16:25;101114.44;;;11.85;72.95
51876;BME280;34054;52.100;5.116;2022-11-03T00:16:57;101058.91;;;11.54;72.55
51876;BME280;34054;52.100;5.116;2022-11-03T00:17:29;101077.78;;;11.66;72.56
51876;BME280;34054;52.100;5.116;2022-11-03T00:18:01;101114.72;;;11.89;72.58
51876;BME280;34054;52.100;5.116;2022-11-03T00:18:32;101079.25;;;11.46;72.96
51876;BME280;34054;52.100;5.116;2022-11-03T00:19:04;100928.56;;;10.55;73.09
51876;BME280;34054;52.100;5.116;2022-11-03T00:19:38;101114.94;;;11.82;73.08
51876;BME280;34054;52.100;5.116;2022-11-03T00:20:11;101115.47;;;11.79;72.85
51876;BME280;34054;52.100;5.116;2022-11-03T00:20:43;101060.75;;;11.48;72.88
51876;BME280;34054;52.100;5.116;2022-11-03T00:21:14;101080.22;;;11.62;73.01
51876;BME280;34054;52.100;5.116;2022-11-03T00:21:47;101056.16;;;11.49;72.93
51876;BME280;34054;52.100;5.116;2022-11-03T00:22:19;101116.56;;;11.78;73.03
51876;BME280;34054;52.100;5.116;2022-11-03T00:22:51;101042.41;;;11.33;73.18
51876;BME280;34054;52.100;5.116;2022-11-03T00:23:26;101038.94;;;11.38;72.95
51876;BME280;34054;52.100;5.116;2022-11-03T00:23:58;101108.84;;;11.70;73.16
51876;BME280;34054;52.100;5.116;2022-11-03T00:24:32;101012.00;;;11.09;73.12
51876;BME280;34054;52.100;5.116;2022-11-03T00:25:04;101095.91;;;11.55;73.39
51876;BME280;34054;52.100;5.116;2022-11-03T00:25:37;100969.00;;;10.78;73.50
51876;BME280;34054;52.100;5.116;2022-11-03T00:26:11;100992.66;;;11.05;73.54
51876;BME280;34054;52.100;5.116;2022-11-03T00:26:44;101023.00;;;11.24;73.39
51876;BME280;34054;52.100;5.116;2022-11-03T00:27:17;101070.66;;;11.59;73.30
51876;BME280;34054;52.100;5.116;2022-11-03T00:27:53;100959.31;;;10.88;73.37
51876;BME280;34054;52.100;5.116;2022-11-03T00:28:26;101085.44;;;11.69;73.23
51876;BME280;34054;52.100;5.116;2022-11-03T00:28:58;100892.94;;;10.51;73.31
51876;BME280;34054;52.100;5.116;2022-11-03T00:29:32;100958.56;;;10.92;73.05
51876;BME280;34054;52.100;5.116;2022-11-03T00:30:04;101031.31;;;11.40;73.10
51876;BME280;34054;52.100;5.116;2022-11-03T00:30:38;101093.34;;;11.70;73.09
51876;BME280;34054;52.100;5.116;2022-11-03T00:31:11;101059.66;;;11.44;73.24
51876;BME280;34054;52.100;5.116;2022-11-03T00:31:45;101096.28;;;11.63;73.44
51876;BME280;34054;52.100;5.116;2022-11-03T00:32:17;100991.59;;;11.06;73.46
51876;BME280;34054;52.100;5.116;2022-11-03T00:32:48;101044.91;;;11.40;73.45
51876;BME280;34054;52.100;5.116;2022-11-03T00:33:20;101063.47;;;11.48;73.24
51876;BME280;34054;52.100;5.116;2022-11-03T00:33:57;101096.59;;;11.67;73.31
51876;BME280;34054;52.100;5.116;2022-11-03T00:34:30;101074.66;;;11.52;73.47
51876;BME280;34054;52.100;5.116;2022-11-03T00:35:03;101083.22;;;11.66;73.32
51876;BME280;34054;52.100;5.116;2022-11-03T00:35:36;101087.91;;;11.70;73.06
51876;BME280;34054;52.100;5.116;2022-11-03T00:36:11;101084.38;;;11.70;73.10
51876;BME280;34054;52.100;5.116;2022-11-03T00:36:46;101084.31;;;11.65;73.28
51876;BME280;34054;52.100;5.116;2022-11-03T00:37:18;101051.53;;;11.49;73.50
51876;BME280;34054;52.100;5.116;2022-11-03T00:37:49;101083.59;;;11.74;73.09
51876;BME280;34054;52.100;5.116;2022-11-03T00:38:22;100958.38;;;10.99;73.15
51876;BME280;34054;52.100;5.116;2022-11-03T00:38:54;101086.47;;;11.62;73.21
51876;BME280;34054;52.100;5.116;2022-11-03T00:39:26;101091.56;;;11.54;73.78
51876;BME280;34054;52.100;5.116;2022-11-03T00:39:58;101086.13;;;11.54;73.85
51876;BME280;34054;52.100;5.116;2022-11-03T00:40:30;101083.69;;;11.57;73.88
51876;BME280;34054;52.100;5.116;2022-11-03T00:41:03;101084.22;;;11.54;73.76
51876;BME280;34054;52.100;5.116;2022-11-03T00:41:37;101084.06;;;11.66;73.38
51876;BME280;34054;52.100;5.116;2022-11-03T00:42:12;101077.78;;;11.66;73.38
51876;BME280;34054;52.100;5.116;2022-11-03T00:42:45;101080.56;;;11.71;73.42
51876;BME280;34054;52.100;5.116;2022-11-03T00:43:16;101083.47;;;11.59;73.41
51876;BME280;34054;52.100;5.116;2022-11-03T00:43:49;101065.44;;;11.53;73.63
51876;BME280;34054;52.100;5.116;2022-11-03T00:44:22;101064.94;;;11.56;73.55
51876;BME280;34054;52.100;5.116;2022-11-03T00:44:54;101050.66;;;11.43;73.48
51876;BME280;34054;52.100;5.116;2022-11-03T00:45:25;101084.00;;;11.61;73.32
51876;BME280;34054;52.100;5.116;2022-11-03T00:45:57;101059.91;;;11.42;73.58
51876;BME280;34054;52.100;5.116;2022-11-03T00:46:30;101081.03;;;11.62;73.62
51876;BME280;34054;52.100;5.116;2022-11-03T00:47:05;101068.56;;;11.67;73.30
51876;BME280;34054;52.100;5.116;2022-11-03T00:47:37;101076.88;;;11.55;73.67
51876;BME280;34054;52.100;5.116;2022-11-03T00:48:33;101077.59;;;11.72;73.40
51876;BME280;34054;52.100;5.116;2022-11-03T00:49:09;101058.25;;;11.69;73.21
51876;BME280;34054;52.100;5.116;2022-11-03T00:49:40;101070.75;;;11.70;73.16
51876;BME280;34054;52.100;5.116;2022-11-03T00:50:12;101075.94;;;11.71;73.18
51876;BME280;34054;52.100;5.116;2022-11-03T00:50:46;101048.41;;;11.62;73.12
51876;BME280;34054;52.100;5.116;2022-11-03T00:51:20;101041.81;;;11.58;73.02
51876;BME280;34054;52.100;5.116;2022-11-03T00:51:53;101027.78;;;11.39;73.02
51876;BME280;34054;52.100;5.116;2022-11-03T00:52:24;101003.69;;;11.21;73.20
51876;BME280;34054;52.100;5.116;2022-11-03T00:52:57;101065.78;;;11.61;73.35
51876;BME280;34054;52.100;5.116;2022-11-03T00:53:29;101055.53;;;11.69;73.28
51876;BME280;34054;52.100;5.116;2022-11-03T00:54:03;100888.63;;;10.55;73.25
51876;BME280;34054;52.100;5.116;2022-11-03T00:54:37;101052.75;;;11.63;73.34
51876;BME280;34054;52.100;5.116;2022-11-03T00:55:08;101056.91;;;11.71;72.94
51876;BME280;34054;52.100;5.116;2022-11-03T00:55:40;101051.19;;;11.73;72.86
51876;BME280;34054;52.100;5.116;2022-11-03T00:56:13;101062.91;;;11.73;72.90
51876;BME280;34054;52.100;5.116;2022-11-03T00:56:47;101080.41;;;11.83;72.91
51876;BME280;34054;52.100;5.116;2022-11-03T00:57:19;101063.38;;;11.65;73.11
51876;BME280;34054;52.100;5.116;2022-11-03T00:57:51;101078.56;;;11.61;73.20
51876;BME280;34054;52.100;5.116;2022-11-03T00:58:24;101070.97;;;11.63;73.45
51876;BME280;34054;52.100;5.116;2022-11-03T00:58:58;101032.19;;;11.45;73.25
51876;BME280;34054;52.100;5.116;2022-11-03T00:59:30;101071.63;;;11.75;72.98
51876;BME280;34054;52.100;5.116;2022-11-03T01:00:06;101063.97;;;11.72;73.09
51876;BME280;34054;52.100;5.116;2022-11-03T01:00:39;101071.88;;;11.74;73.08
51876;BME280;34054;52.100;5.116;2022-11-03T01:01:12;101072.94;;;11.73;73.14
51876;BME280;34054;52.100;5.116;2022-11-03T01:01:45;101057.91;;;11.60;73.21
51876;BME280;34054;52.100;5.116;2022-11-03T01:02:17;101066.97;;;11.71;73.29
51876;BME280;34054;52.100;5.116;2022-11-03T01:02:49;101028.06;;;11.38;73.13
51876;BME280;34054;52.100;5.116;2022-11-03T01:03:20;101067.47;;;11.68;73.22
51876;BME280;34054;52.100;5.116;2022-11-03T01:03:54;101066.09;;;11.65;73.32
51876;BME280;34054;52.100;5.116;2022-11-03T01:04:46;101063.38;;;11.65;73.52
51876;BME280;34054;52.100;5.116;2022-11-03T01:05:39;101034.91;;;11.45;73.54
51876;BME280;34054;52.100;5.116;2022-11-03T01:06:32;101058.72;;;11.60;73.47
51876;BME280;34054;52.100;5.116;2022-11-03T01:07:20;101063.19;;;11.72;73.35
51876;BME280;34054;52.100;5.116;2022-11-03T01:07:52;101062.19;;;11.56;73.51
51876;BME280;34054;52.100;5.116;2022-11-03T01:08:24;101061.41;;;11.55;73.74
51876;BME280;34054;52.100;5.116;2022-11-03T01:08:57;101057.91;;;11.60;73.81
51876;BME280;34054;52.100;5.116;2022-11-03T01:09:32;101050.06;;;11.69;73.59
51876;BME280;34054;52.100;5.116;2022-11-03T01:10:07;101016.91;;;11.39;73.59
51876;BME280;34054;52.100;5.116;2022-11-03T01:10:39;101056.31;;;11.69;73.58
51876;BME280;34054;52.100;5.116;2022-11-03T01:11:32;101061.25;;;11.72;73.42
51876;BME280;34054;52.100;5.116;2022-11-03T01:12:16;101053.31;;;11.66;73.48
51876;BME280;34054;52.100;5.116;2022-11-03T01:12:50;101054.44;;;11.70;73.51
51876;BME280;34054;52.100;5.116;2022-11-03T01:13:21;101068.06;;;11.75;73.41
51876;BME280;34054;52.100;5.116;2022-11-03T01:13:53;100980.84;;;11.22;73.43
51876;BME280;34054;52.100;5.116;2022-11-03T01:14:27;101053.91;;;11.73;73.25
51876;BME280;34054;52.100;5.116;2022-11-03T01:15:02;101015.97;;;11.56;73.26
51876;BME280;34054;52.100;5.116;2022-11-03T01:15:34;100991.06;;;11.37;73.17
51876;BME280;34054;52.100;5.116;2022-11-03T01:16:05;101053.69;;;11.79;72.96
51876;BME280;34054;52.100;5.116;2022-11-03T01:16:37;101052.81;;;11.74;73.28
51876;BME280;34054;52.100;5.116;2022-11-03T01:17:12;101053.19;;;11.83;73.39
51876;BME280;34054;52.100;5.116;2022-11-03T01:17:45;101060.38;;;11.67;73.23
51876;BME280;34054;52.100;5.116;2022-11-03T01:18:16;101048.69;;;11.66;73.78
51876;BME280;34054;52.100;5.116;2022-11-03T01:18:48;101028.78;;;11.60;73.44
51876;BME280;34054;52.100;5.116;2022-11-03T01:19:21;101053.09;;;11.72;73.34
51876;BME280;34054;52.100;5.116;2022-11-03T01:19:54;101032.56;;;11.54;73.56
51876;BME280;34054;52.100;5.116;2022-11-03T01:20:26;101046.56;;;11.68;73.82
51876;BME280;34054;52.100;5.116;2022-11-03T01:20:58;101031.84;;;11.69;73.68
51876;BME280;34054;52.100;5.116;2022-11-03T01:21:31;100955.41;;;11.33;73.36
51876;BME280;34054;52.100;5.116;2022-11-03T01:22:03;100958.81;;;11.51;73.05
51876;BME280;34054;52.100;5.116;2022-11-03T01:22:36;101027.38;;;11.90;73.06
51876;BME280;34054;52.100;5.116;2022-11-03T01:23:08;101007.13;;;11.71;73.09
51876;BME280;34054;52.100;5.116;2022-11-03T01:23:40;101041.47;;;11.82;73.22
51876;BME280;34054;52.100;5.116;2022-11-03T01:24:11;101044.94;;;11.72;73.43
51876;BME280;34054;52.100;5.116;2022-11-03T01:24:44;101033.19;;;11.67;73.79
51876;BME280;34054;52.100;5.116;2022-11-03T01:25:16;100969.84;;;11.39;73.72
51876;BME280;34054;52.100;5.116;2022-11-03T01:25:49;101016.66;;;11.73;73.41
51876;BME280;34054;52.100;5.116;2022-11-03T01:26:22;101034.63;;;11.74;73.79
51876;BME280;34054;52.100;5.116;2022-11-03T01:26:54;100906.38;;;10.90;73.57
51876;BME280;34054;52.100;5.116;2022-11-03T01:27:25;101033.31;;;11.82;73.52
51876;BME280;34054;52.100;5.116;2022-11-03T01:27:58;101024.66;;;11.90;73.35
51876;BME280;34054;52.100;5.116;2022-11-03T01:28:29;101006.06;;;11.77;73.23
51876;BME280;34054;52.100;5.116;2022-11-03T01:29:01;101034.28;;;11.98;73.11
51876;BME280;34054;52.100;5.116;2022-11-03T01:29:35;101034.72;;;11.90;73.20
51876;BME280;34054;52.100;5.116;2022-11-03T01:30:07;101024.47;;;11.97;73.05
51876;BME280;34054;52.100;5.116;2022-11-03T01:30:40;101036.66;;;11.89;73.00
51876;BME280;34054;52.100;5.116;2022-11-03T01:31:14;100994.19;;;11.56;73.58
51876;BME280;34054;52.100;5.116;2022-11-03T01:31:47;101027.56;;;11.78;73.42
51876;BME280;34054;52.100;5.116;2022-11-03T01:32:20;101039.03;;;11.86;73.28
51876;BME280;34054;52.100;5.116;2022-11-03T01:32:51;101043.66;;;11.80;73.41
51876;BME280;34054;52.100;5.116;2022-11-03T01:33:23;100876.59;;;10.73;73.64
51876;BME280;34054;52.100;5.116;2022-11-03T01:33:55;101037.13;;;11.81;73.68
51876;BME280;34054;52.100;5.116;2022-11-03T01:34:28;101036.88;;;11.83;73.72
51876;BME280;34054;52.100;5.116;2022-11-03T01:35:00;101033.84;;;11.79;73.85
51876;BME280;34054;52.100;5.116;2022-11-03T01:35:32;101032.19;;;11.78;73.84
51876;BME280;34054;52.100;5.116;2022-11-03T01:36:04;101028.41;;;11.79;73.79
51876;BME280;34054;52.100;5.116;2022-11-03T01:36:39;101031.94;;;11.79;73.74
51876;BME280;34054;52.100;5.116;2022-11-03T01:37:12;101040.63;;;11.76;74.15
51876;BME280;34054;52.100;5.116;2022-11-03T01:37:43;101014.97;;;11.67;74.03
51876;BME280;34054;52.100;5.116;2022-11-03T01:38:15;101023.66;;;11.64;74.18
51876;BME280;34054;52.100;5.116;2022-11-03T01:38:47;101031.84;;;11.69;74.17
51876;BME280;34054;52.100;5.116;2022-11-03T01:39:19;100984.59;;;11.48;74.40
51876;BME280;34054;52.100;5.116;2022-11-03T01:39:51;101022.97;;;11.79;74.28
51876;BME280;34054;52.100;5.116;2022-11-03T01:40:23;101009.78;;;11.66;74.20
51876;BME280;34054;52.100;5.116;2022-11-03T01:40:56;101029.19;;;11.74;74.08
51876;BME280;34054;52.100;5.116;2022-11-03T01:41:27;101021.53;;;11.71;74.48
51876;BME280;34054;52.100;5.116;2022-11-03T01:41:59;101020.94;;;11.64;74.73
51876;BME280;34054;52.100;5.116;2022-11-03T01:42:34;101018.22;;;11.64;74.72
51876;BME280;34054;52.100;5.116;2022-11-03T01:43:15;101017.72;;;11.72;74.77
51876;BME280;34054;52.100;5.116;2022-11-03T01:43:50;100994.00;;;11.62;74.56
51876;BME280;34054;52.100;5.116;2022-11-03T01:44:50;100965.28;;;11.44;74.67
51876;BME280;34054;52.100;5.116;2022-11-03T01:45:22;101013.91;;;11.68;74.70
51876;BME280;34054;52.100;5.116;2022-11-03T01:46:01;101009.53;;;11.67;74.90
51876;BME280;34054;52.100;5.116;2022-11-03T01:46:41;101007.13;;;11.71;75.06
51876;BME280;34054;52.100;5.116;2022-11-03T01:47:21;101006.88;;;11.77;74.76
51876;BME280;34054;52.100;5.116;2022-11-03T01:47:59;101000.31;;;11.73;74.81
51876;BME280;34054;52.100;5.116;2022-11-03T01:48:32;101002.56;;;11.82;74.67
51876;BME280;34054;52.100;5.116;2022-11-03T01:49:09;100999.28;;;11.79;74.74
51876;BME280;34054;52.100;5.116;2022-11-03T01:49:46;101000.31;;;11.68;75.01
51876;BME280;34054;52.100;5.116;2022-11-03T01:50:22;100939.31;;;11.26;74.87
51876;BME280;34054;52.100;5.116;2022-11-03T01:50:54;100963.72;;;11.54;75.21
51876;BME280;34054;52.100;5.116;2022-11-03T01:51:26;100957.94;;;11.45;75.06
51876;BME280;34054;52.100;5.116;2022-11-03T01:52:06;101007.41;;;11.74;75.02
51876;BME280;34054;52.100;5.116;2022-11-03T01:52:44;101001.38;;;11.67;75.33
51876;BME280;34054;52.100;5.116;2022-11-03T01:53:19;101002.75;;;11.70;75.38
51876;BME280;34054;52.100;5.116;2022-11-03T01:53:55;101006.84;;;11.72;75.37
51876;BME280;34054;52.100;5.116;2022-11-03T01:54:32;101008.75;;;11.72;75.36
51876;BME280;34054;52.100;5.116;2022-11-03T01:55:10;100974.69;;;11.64;75.19
51876;BME280;34054;52.100;5.116;2022-11-03T01:55:48;100990.03;;;11.81;75.22
51876;BME280;34054;52.100;5.116;2022-11-03T01:56:22;100965.75;;;11.69;74.92
51876;BME280;34054;52.100;5.116;2022-11-03T01:56:55;100965.44;;;11.65;74.95
51876;BME280;34054;52.100;5.116;2022-11-03T01:57:33;100992.72;;;11.75;75.10
51876;BME280;34054;52.100;5.116;2022-11-03T01:58:14;100992.47;;;11.77;75.33
51876;BME280;34054;52.100;5.116;2022-11-03T01:58:52;100990.78;;;11.71;75.32
51876;BME280;34054;52.100;5.116;2022-11-03T01:59:26;100992.44;;;11.72;75.42
51876;BME280;34054;52.100;5.116;2022-11-03T02:00:00;100998.38;;;11.69;75.65
51876;BME280;34054;52.100;5.116;2022-11-03T02:00:32;100964.00;;;11.57;75.63
51876;BME280;34054;52.100;5.116;2022-11-03T02:01:05;100985.66;;;11.74;75.55
51876;BME280;34054;52.100;5.116;2022-11-03T02:01:38;100983.50;;;11.82;75.27
51876;BME280;34054;52.100;5.116;2022-11-03T02:02:10;100989.75;;;11.77;75.45
51876;BME280;34054;52.100;5.116;2022-11-03T02:02:42;100998.75;;;11.83;75.24
51876;BME280;34054;52.100;5.116;2022-11-03T02:03:16;100957.16;;;11.50;75.49
51876;BME280;34054;52.100;5.116;2022-11-03T02:03:53;101002.75;;;11.70;75.75
51876;BME280;34054;52.100;5.116;2022-11-03T02:04:31;100908.22;;;11.17;75.86
51876;BME280;34054;52.100;5.116;2022-11-03T02:05:07;100995.69;;;11.74;75.64
51876;BME280;34054;52.100;5.116;2022-11-03T02:05:42;100992.19;;;11.78;75.73
51876;BME280;34054;52.100;5.116;2022-11-03T02:06:16;100972.34;;;11.78;75.48
51876;BME280;34054;52.100;5.116;2022-11-03T02:06:57;100976.69;;;11.79;75.43
51876;BME280;34054;52.100;5.116;2022-11-03T02:07:42;100969.84;;;11.71;75.69
51876;BME280;34054;52.100;5.116;2022-11-03T02:08:22;100968.19;;;11.70;75.68
51876;BME280;34054;52.100;5.116;2022-11-03T02:09:02;100939.28;;;11.59;75.42
51876;BME280;34054;52.100;5.116;2022-11-03T02:09:35;100978.63;;;11.84;75.60
51876;BME280;34054;52.100;5.116;2022-11-03T02:10:07;100962.44;;;11.67;75.70
51876;BME280;34054;52.100;5.116;2022-11-03T02:10:40;100820.97;;;10.81;75.55
51876;BME280;34054;52.100;5.116;2022-11-03T02:11:12;100799.13;;;10.71;75.50
51876;BME280;34054;52.100;5.116;2022-11-03T02:12:03;100908.13;;;11.34;75.43
51876;BME280;34054;52.100;5.116;2022-11-03T02:12:36;100797.75;;;10.68;75.80
51876;BME280;34054;52.100;5.116;2022-11-03T02:13:15;100968.16;;;11.65;76.09
51876;BME280;34054;52.100;5.116;2022-11-03T02:13:49;100983.50;;;11.76;76.10
51876;BME280;34054;52.100;5.116;2022-11-03T02:14:20;100972.91;;;11.80;76.19
51876;BME280;34054;52.100;5.116;2022-11-03T02:14:55;100967.47;;;11.80;75.85
51876;BME280;34054;52.100;5.116;2022-11-03T02:15:31;100972.66;;;11.87;75.91
51876;BME280;34054;52.100;5.116;2022-11-03T02:16:05;100976.94;;;11.77;75.85
51876;BME280;34054;52.100;5.116;2022-11-03T02:16:39;100972.06;;;11.79;76.08
51876;BME280;34054;52.100;5.116;2022-11-03T02:17:13;100974.75;;;11.74;75.83
51876;BME280;34054;52.100;5.116;2022-11-03T02:17:50;100969.31;;;11.74;76.31
51876;BME280;34054;52.100;5.116;2022-11-03T02:18:26;100972.91;;;11.80;76.28
51876;BME280;34054;52.100;5.116;2022-11-03T02:19:01;100972.63;;;11.82;76.22
51876;BME280;34054;52.100;5.116;2022-11-03T02:19:39;100967.47;;;11.80;76.23
51876;BME280;34054;52.100;5.116;2022-11-03T02:20:15;100972.66;;;11.87;76.28
51876;BME280;34054;52.100;5.116;2022-11-03T02:20:56;100944.78;;;11.69;76.06
51876;BME280;34054;52.100;5.116;2022-11-03T02:21:42;100975.94;;;11.89;76.07
51876;BME280;34054;52.100;5.116;2022-11-03T02:22:48;100973.00;;;11.96;76.01
51876;BME280;34054;52.100;5.116;2022-11-03T02:23:34;100971.63;;;11.93;75.79
51876;BME280;34054;52.100;5.116;2022-11-03T02:24:14;100979.72;;;11.83;76.21
51876;BME280;34054;52.100;5.116;2022-11-03T02:24:58;100970.75;;;11.87;76.30
51876;BME280;34054;52.100;5.116;2022-11-03T02:25:43;100968.28;;;11.86;76.45
51876;BME280;34054;52.100;5.116;2022-11-03T02:26:18;100970.72;;;11.82;76.40
51876;BME280;34054;52.100;5.116;2022-11-03T02:26:53;100962.81;;;11.81;76.66
51876;BME280;34054;52.100;5.116;2022-11-03T02:27:26;100968.56;;;11.84;76.53
51876;BME280;34054;52.100;5.116;2022-11-03T02:27:59;100972.63;;;11.82;76.76
51876;BME280;34054;52.100;5.116;2022-11-03T02:28:32;100966.63;;;11.79;76.83
51876;BME280;34054;52.100;5.116;2022-11-03T02:29:04;100961.75;;;11.87;76.81
51876;BME280;34054;52.100;5.116;2022-11-03T02:29:36;100964.78;;;11.90;76.34
51876;BME280;34054;52.100;5.116;2022-11-03T02:30:09;100952.78;;;11.86;76.52
51876;BME280;34054;52.100;5.116;2022-11-03T02:30:44;100957.94;;;11.83;76.59
51876;BME280;34054;52.100;5.116;2022-11-03T02:31:28;100904.63;;;11.44;77.04
51876;BME280;34054;52.100;5.116;2022-11-03T02:32:12;100838.84;;;11.09;76.64
51876;BME280;34054;52.100;5.116;2022-11-03T02:32:56;100954.75;;;11.96;76.72
51876;BME280;34054;52.100;5.116;2022-11-03T02:33:42;100850.94;;;11.24;76.55
51876;BME280;34054;52.100;5.116;2022-11-03T02:34:22;100951.72;;;11.87;76.83
51876;BME280;34054;52.100;5.116;2022-11-03T02:35:04;100880.44;;;11.42;76.92
51876;BME280;34054;52.100;5.116;2022-11-03T02:35:48;100831.38;;;11.27;76.71
51876;BME280;34054;52.100;5.116;2022-11-03T02:36:28;100944.91;;;11.90;76.88
51876;BME280;34054;52.100;5.116;2022-11-03T02:37:09;100872.38;;;11.58;76.58
51876;BME280;34054;52.100;5.116;2022-11-03T02:37:46;100938.78;;;12.05;76.28
51876;BME280;34054;52.100;5.116;2022-11-03T02:38:23;100780.09;;;11.03;76.35
51876;BME280;34054;52.100;5.116;2022-11-03T02:39:02;100919.84;;;11.83;76.22
51876;BME280;34054;52.100;5.116;2022-11-03T02:39:44;100894.44;;;11.67;76.72
51876;BME280;34054;52.100;5.116;2022-11-03T02:40:22;100938.22;;;12.03;76.54
51876;BME280;34054;52.100;5.116;2022-11-03T02:41:04;100939.34;;;12.07;76.31
51876;BME280;34054;52.100;5.116;2022-11-03T02:41:39;100931.34;;;11.95;76.72
51876;BME280;34054;52.100;5.116;2022-11-03T02:42:14;100934.59;;;11.92;76.86
51876;BME280;34054;52.100;5.116;2022-11-03T02:42:50;100927.31;;;11.98;76.86
51876;BME280;34054;52.100;5.116;2022-11-03T02:43:24;100929.72;;;11.94;77.19
51876;BME280;34054;52.100;5.116;2022-11-03T02:43:59;100929.94;;;11.87;77.16
51876;BME280;34054;52.100;5.116;2022-11-03T02:44:33;100925.84;;;11.85;77.12
51876;BME280;34054;52.100;5.116;2022-11-03T02:45:08;100934.53;;;11.82;77.47
51876;BME280;34054;52.100;5.116;2022-11-03T02:45:45;100920.44;;;11.90;77.41
51876;BME280;34054;52.100;5.116;2022-11-03T02:46:21;100913.63;;;11.92;76.93
51876;BME280;34054;52.100;5.116;2022-11-03T02:46:57;100892.38;;;11.84;76.84
51876;BME280;34054;52.100;5.116;2022-11-03T02:47:33;100910.63;;;11.89;77.10
51876;BME280;34054;52.100;5.116;2022-11-03T02:48:10;100872.13;;;11.65;77.04
51876;BME280;34054;52.100;5.116;2022-11-03T02:48:46;100921.31;;;12.01;77.15
51876;BME280;34054;52.100;5.116;2022-11-03T02:49:18;100922.41;;;12.00;77.01
51876;BME280;34054;52.100;5.116;2022-11-03T02:49:52;100923.41;;;11.88;77.23
51876;BME280;34054;52.100;5.116;2022-11-03T02:50:28;100914.19;;;11.94;77.47
51876;BME280;34054;52.100;5.116;2022-11-03T02:51:02;100901.41;;;11.95;77.33
51876;BME280;34054;52.100;5.116;2022-11-03T02:51:35;100908.00;;;12.04;77.12
51876;BME280;34054;52.100;5.116;2022-11-03T02:52:32;100917.81;;;12.00;77.12
51876;BME280;34054;52.100;5.116;2022-11-03T02:53:10;100899.47;;;11.90;77.33
51876;BME280;34054;52.100;5.116;2022-11-03T02:53:46;100891.31;;;11.90;77.40
51876;BME280;34054;52.100;5.116;2022-11-03T02:54:32;100890.72;;;11.83;77.66
51876;BME280;34054;52.100;5.116;2022-11-03T02:55:12;100871.94;;;11.76;77.58
51876;BME280;34054;52.100;5.116;2022-11-03T02:55:54;100903.03;;;11.96;77.68
51876;BME280;34054;52.100;5.116;2022-11-03T02:56:37;100902.50;;;11.94;77.72
51876;BME280;34054;52.100;5.116;2022-11-03T02:57:17;100896.03;;;12.05;77.77
51876;BME280;34054;52.100;5.116;2022-11-03T02:58:00;100903.41;;;12.05;77.38
51876;BME280;34054;52.100;5.116;2022-11-03T02:58:44;100891.66;;;11.99;77.57
51876;BME280;34054;52.100;5.116;2022-11-03T02:59:25;100869.78;;;11.84;77.52
51876;BME280;34054;52.100;5.116;2022-11-03T03:00:03;100847.09;;;11.62;77.63
51876;BME280;34054;52.100;5.116;2022-11-03T03:00:42;100894.34;;;11.94;77.83
51876;BME280;34054;52.100;5.116;2022-11-03T03:01:22;100857.22;;;11.72;77.95
51876;BME280;34054;52.100;5.116;2022-11-03T03:02:07;100901.47;;;12.00;77.92
51876;BME280;34054;52.100;5.116;2022-11-03T03:02:47;100904.19;;;12.05;77.74
51876;BME280;34054;52.100;5.116;2022-11-03T03:03:27;100893.88;;;12.02;77.83
51876;BME280;34054;52.100;5.116;2022-11-03T03:04:07;100896.03;;;12.05;77.65
51876;BME280;34054;52.100;5.116;2022-11-03T03:04:43;100825.84;;;11.59;77.73